Time;durP1;ratioP1;P1;durP2;ratioP2;P2;SDS_P1;SDS_P2;PMS_P1;PMS_P2;Temp;Humidity;BMP_temperature;BMP_pressure;BME280_temperature;BME280_humidity;BME280_pressure;Samples;Min_cycle;Max_cycle;Signal;HPM_P1;HPM_P2
2023/08/17 00:00:05;;;;;;;4.70;0.80;;;;;;;19.08;100.00;100247.77;105234;1257;60472;-66
2023/08/17 00:02:32;;;;;;;1.90;1.00;;;;;;;19.07;100.00;100249.42;105688;1257;60789;-65
2023/08/17 00:05:00;;;;;;;1.40;0.90;;;;;;;19.08;100.00;100249.59;105186;1257;73755;-65
2023/08/17 00:07:27;;;;;;;1.30;0.90;;;;;;;19.08;100.00;100253.55;108728;1253;67203;-67
2023/08/17 00:09:55;;;;;;;2.20;0.90;;;;;;;19.09;100.00;100253.31;108973;1254;72627;-65
2023/08/17 00:12:22;;;;;;;3.50;1.00;;;;;;;19.09;100.00;100248.77;107869;1257;61852;-67
2023/08/17 00:14:50;;;;;;;1.00;0.90;;;;;;;19.06;100.00;100244.42;104311;1253;60972;-67
2023/08/17 00:17:18;;;;;;;2.10;0.90;;;;;;;19.03;100.00;100250.14;104615;1256;73767;-66
2023/08/17 00:19:46;;;;;;;4.60;1.00;;;;;;;18.98;100.00;100251.77;104389;1256;66755;-67
2023/08/17 00:22:13;;;;;;;7.10;1.10;;;;;;;18.94;100.00;100250.85;104536;1253;71368;-67
2023/08/17 00:24:44;;;;;;;1.00;0.90;;;;;;;18.87;100.00;100251.84;104737;1253;60568;-67
2023/08/17 00:27:11;;;;;;;2.10;0.90;;;;;;;18.83;100.00;100250.33;105521;1253;59630;-67
2023/08/17 00:29:38;;;;;;;3.10;1.00;;;;;;;18.81;100.00;100253.02;104650;1258;74295;-66
2023/08/17 00:32:06;;;;;;;1.10;1.00;;;;;;;18.80;100.00;100254.75;104749;1256;69012;-67
2023/08/17 00:34:35;;;;;;;2.50;1.20;;;;;;;18.80;100.00;100254.55;104862;1256;72748;-65
2023/08/17 00:37:03;;;;;;;3.00;0.90;;;;;;;18.77;100.00;100256.47;104560;1253;61807;-65
2023/08/17 00:39:30;;;;;;;1.20;0.80;;;;;;;18.71;100.00;100256.16;108856;1253;59555;-66
2023/08/17 00:41:57;;;;;;;2.30;0.90;;;;;;;18.68;100.00;100254.61;108071;1254;72561;-65
2023/08/17 00:44:25;;;;;;;2.00;1.00;;;;;;;18.63;100.00;100256.59;104653;1253;67615;-66
2023/08/17 00:46:52;;;;;;;3.40;0.90;;;;;;;18.61;100.00;100255.63;104531;1254;71358;-67
2023/08/17 00:49:19;;;;;;;1.80;1.00;;;;;;;18.60;100.00;100253.50;104577;1253;61110;-67
2023/08/17 00:51:47;;;;;;;1.70;1.00;;;;;;;18.61;100.00;100250.20;104770;1254;60460;-66
2023/08/17 00:56:59;;;;;;;1.40;1.00;;;;;;;18.58;100.00;100269.67;101405;1290;600553;-54
2023/08/17 00:59:27;;;;;;;2.20;1.20;;;;;;;18.56;100.00;100272.72;104121;1267;59340;-53
2023/08/17 01:02:03;;;;;;;1.60;1.10;;;;;;;18.54;100.00;100273.01;106949;1257;60493;-53
2023/08/17 01:04:31;;;;;;;3.50;1.20;;;;;;;18.51;100.00;100268.86;108600;1257;70949;-54
2023/08/17 01:06:58;;;;;;;1.20;0.90;;;;;;;18.49;100.00;100265.23;108461;1256;67185;-55
2023/08/17 01:09:26;;;;;;;2.40;1.10;;;;;;;18.47;100.00;100266.08;108256;1257;147869;-55
2023/08/17 01:11:59;;;;;;;2.20;1.20;;;;;;;18.46;100.00;100264.55;108576;1262;60394;-53
2023/08/17 01:14:39;;;;;;;3.60;1.10;;;;;;;18.45;100.00;100263.34;108570;1254;57847;-51
2023/08/17 01:17:25;;;;;;;1.70;1.00;;;;;;;18.39;100.00;100263.75;108703;1254;73766;-52
2023/08/17 01:19:52;;;;;;;1.40;1.30;;;;;;;18.35;100.00;100267.91;108542;1254;66354;-51
2023/08/17 01:22:21;;;;;;;1.80;0.90;;;;;;;18.33;100.00;100264.04;108550;1257;72735;-51
2023/08/17 01:24:48;;;;;;;4.00;1.30;;;;;;;18.33;100.00;100264.56;108635;1254;60381;-52
2023/08/17 01:27:16;;;;;;;1.20;1.00;;;;;;;18.33;100.00;100260.17;108700;1254;59387;-53
2023/08/17 01:29:43;;;;;;;1.90;0.90;;;;;;;18.35;100.00;100257.55;108863;1260;72993;-52
2023/08/17 01:32:16;;;;;;;5.80;1.40;;;;;;;18.35;100.00;100259.54;108626;1254;67139;-53
2023/08/17 01:34:47;;;;;;;1.40;1.00;;;;;;;18.30;100.00;100257.85;108740;1255;71403;-51
2023/08/17 01:37:14;;;;;;;2.30;1.30;;;;;;;18.28;100.00;100260.22;108824;1254;60479;-52
2023/08/17 01:39:43;;;;;;;1.90;1.40;;;;;;;18.26;100.00;100254.90;108814;1256;58901;-53
2023/08/17 01:42:12;;;;;;;2.00;1.10;;;;;;;18.26;100.00;100256.71;108816;1257;71328;-53
2023/08/17 01:44:39;;;;;;;7.80;2.10;;;;;;;18.26;100.00;100251.42;108954;1257;67472;-53
2023/08/17 01:47:07;;;;;;;2.40;1.20;;;;;;;18.26;100.00;100248.92;108904;1257;73035;-51
2023/08/17 01:49:34;;;;;;;2.50;1.30;;;;;;;18.22;100.00;100250.27;108928;1254;60072;-54
2023/08/17 01:52:02;;;;;;;1.90;1.30;;;;;;;18.17;100.00;100252.81;108852;1260;60440;-54
2023/08/17 01:54:29;;;;;;;1.20;1.10;;;;;;;18.11;100.00;100252.16;104953;1258;71250;-52
2023/08/17 01:56:57;;;;;;;3.80;1.10;;;;;;;18.07;100.00;100253.33;104826;1260;66045;-53
2023/08/17 01:59:24;;;;;;;1.70;1.40;;;;;;;18.07;100.00;100255.16;104902;1260;72301;-54
2023/08/17 02:01:51;;;;;;;1.80;1.10;;;;;;;18.05;100.00;100257.64;105290;1260;60426;-53
2023/08/17 02:04:19;;;;;;;3.30;0.90;;;;;;;18.03;100.00;100256.19;104988;1262;59650;-53
2023/08/17 02:06:46;;;;;;;2.20;1.40;;;;;;;18.01;100.00;100254.73;105103;1257;72071;-51
2023/08/17 02:09:13;;;;;;;2.00;1.30;;;;;;;17.98;100.00;100251.27;104831;1256;66413;-52
2023/08/17 02:11:41;;;;;;;1.60;1.40;;;;;;;17.97;100.00;100250.63;104170;1258;72249;-52
2023/08/17 02:14:08;;;;;;;2.70;2.00;;;;;;;17.97;100.00;100248.47;104221;1258;61001;-53
2023/08/17 02:16:35;;;;;;;3.40;1.60;;;;;;;17.94;100.00;100251.58;104236;1260;61641;-53
2023/08/17 02:19:03;;;;;;;1.80;1.60;;;;;;;17.92;100.00;100252.09;104285;1262;72988;-52
2023/08/17 02:21:30;;;;;;;1.30;1.20;;;;;;;17.91;100.00;100253.27;104320;1258;68658;-53
2023/08/17 02:23:58;;;;;;;1.40;1.30;;;;;;;17.90;100.00;100253.48;104306;1257;71422;-52
2023/08/17 02:26:25;;;;;;;2.30;1.50;;;;;;;17.89;100.00;100252.98;104390;1260;61722;-52
2023/08/17 02:28:52;;;;;;;1.90;1.70;;;;;;;17.90;100.00;100251.85;104290;1257;60946;-52
2023/08/17 02:31:20;;;;;;;2.80;1.60;;;;;;;17.90;100.00;100248.56;104231;1256;73048;-51
2023/08/17 02:33:47;;;;;;;6.30;1.40;;;;;;;17.89;100.00;100250.61;104270;1257;67524;-53
2023/08/17 02:36:15;;;;;;;3.90;1.50;;;;;;;17.87;100.00;100252.83;104133;1260;71461;-52
2023/08/17 02:38:42;;;;;;;2.30;1.30;;;;;;;17.85;100.00;100251.84;104301;1256;61666;-53
2023/08/17 02:41:09;;;;;;;1.50;1.30;;;;;;;17.84;100.00;100252.11;104331;1262;59667;-52
2023/08/17 02:43:37;;;;;;;1.50;1.40;;;;;;;17.82;100.00;100248.81;104207;1255;74026;-52
2023/08/17 02:46:06;;;;;;;1.50;1.40;;;;;;;17.78;100.00;100251.59;104050;1258;65625;-52
2023/08/17 02:48:34;;;;;;;2.80;1.30;;;;;;;17.75;100.00;100255.42;105630;1256;73961;-53
2023/08/17 02:51:01;;;;;;;1.70;1.20;;;;;;;17.75;100.00;100254.70;104576;1258;61724;-52
2023/08/17 02:53:30;;;;;;;2.10;1.50;;;;;;;17.76;100.00;100255.36;104450;1257;60501;-53
2023/08/17 02:55:57;;;;;;;4.70;1.60;;;;;;;17.75;100.00;100254.70;104243;1258;73060;-53
2023/08/17 02:58:25;;;;;;;1.30;1.20;;;;;;;17.74;100.00;100256.64;104303;1257;65779;-53
2023/08/17 03:00:53;;;;;;;1.80;1.70;;;;;;;17.72;100.00;100258.41;104406;1258;72500;-53
2023/08/17 03:03:21;;;;;;;1.70;1.30;;;;;;;17.70;100.00;100257.95;104285;1260;60523;-53
2023/08/17 03:05:49;;;;;;;1.90;1.20;;;;;;;17.67;100.00;100262.72;107626;1257;59379;-52
2023/08/17 03:08:16;;;;;;;1.80;1.50;;;;;;;17.64;100.00;100258.19;104416;1259;72978;-52
2023/08/17 03:10:44;;;;;;;1.40;1.30;;;;;;;17.59;100.00;100253.83;104505;1255;65830;-53
2023/08/17 03:13:11;;;;;;;2.40;1.60;;;;;;;17.49;100.00;100252.73;104426;1254;71390;-52
2023/08/17 03:15:39;;;;;;;1.40;1.30;;;;;;;17.41;100.00;100256.33;104388;1254;60461;-54
2023/08/17 03:18:08;;;;;;;3.00;1.10;;;;;;;17.38;100.00;100256.34;104386;1260;59768;-53
2023/08/17 03:20:36;;;;;;;2.00;1.60;;;;;;;17.35;100.00;100255.08;104244;1259;74083;-52
2023/08/17 03:23:08;;;;;;;1.60;1.50;;;;;;;17.35;100.00;100254.20;104404;1259;65728;-52
2023/08/17 03:25:37;;;;;;;1.60;1.50;;;;;;;17.38;100.00;100253.23;104804;1258;73705;-53
2023/08/17 03:28:06;;;;;;;1.60;1.20;;;;;;;17.43;100.00;100251.15;104436;1260;61740;-52
2023/08/17 03:30:34;;;;;;;1.20;1.10;;;;;;;17.45;100.00;100254.06;104835;1257;60087;-54
2023/08/17 03:33:01;;;;;;;1.40;1.30;;;;;;;17.47;100.00;100253.91;104543;1260;73432;-52
2023/08/17 03:35:29;;;;;;;1.30;1.20;;;;;;;17.51;100.00;100253.28;104276;1254;65682;-54
2023/08/17 03:37:57;;;;;;;3.60;1.40;;;;;;;17.57;100.00;100253.27;104689;1257;71456;-53
2023/08/17 03:40:24;;;;;;;1.80;1.70;;;;;;;17.62;100.00;100256.53;105058;1254;60975;-53
2023/08/17 03:42:51;;;;;;;1.30;1.10;;;;;;;17.68;100.00;100254.71;105015;1254;60197;-53
2023/08/17 03:45:19;;;;;;;1.80;1.50;;;;;;;17.70;100.00;100251.80;105103;1259;73103;-51
2023/08/17 03:47:49;;;;;;;2.70;1.20;;;;;;;17.74;100.00;100252.27;105004;1254;66903;-53
2023/08/17 03:50:16;;;;;;;2.80;1.00;;;;;;;17.79;100.00;100250.98;105146;1256;71402;-53
2023/08/17 03:52:44;;;;;;;1.20;1.00;;;;;;;17.84;100.00;100247.95;104896;1259;60707;-53
2023/08/17 03:55:11;;;;;;;1.30;0.90;;;;;;;17.89;100.00;100249.74;104856;1260;59746;-53
2023/08/17 03:57:41;;;;;;;1.10;1.00;;;;;;;17.93;100.00;100247.50;104864;1259;73000;-53
2023/08/17 04:00:10;;;;;;;2.20;1.10;;;;;;;17.98;100.00;100247.48;104826;1255;66166;-54
2023/08/17 04:02:40;;;;;;;0.80;0.80;;;;;;;18.03;100.00;100248.20;104988;1268;73161;-52
2023/08/17 04:05:09;;;;;;;1.40;1.00;;;;;;;18.08;100.00;100247.32;105010;1254;61673;-53
2023/08/17 04:07:36;;;;;;;1.60;1.20;;;;;;;18.14;100.00;100244.15;104812;1259;60030;-54
2023/08/17 04:10:08;;;;;;;2.50;1.00;;;;;;;18.19;100.00;100245.45;105411;1255;73044;-53
2023/08/17 04:12:35;;;;;;;1.30;1.20;;;;;;;18.28;100.00;100245.34;104919;1259;66884;-52
2023/08/17 04:15:03;;;;;;;1.00;0.90;;;;;;;18.40;100.00;100247.88;104881;1259;72727;-52
2023/08/17 04:17:30;;;;;;;4.80;1.00;;;;;;;18.55;100.00;100246.78;104805;1259;60446;-53
2023/08/17 04:19:58;;;;;;;1.60;0.90;;;;;;;18.70;100.00;100247.13;108871;1253;60240;-53
2023/08/17 04:22:26;;;;;;;2.80;1.10;;;;;;;18.86;100.00;100245.93;108950;1255;73151;-53
2023/08/17 04:24:54;;;;;;;1.00;0.90;;;;;;;19.05;100.00;100246.55;108877;1254;65481;-52
2023/08/17 04:27:21;;;;;;;1.60;0.90;;;;;;;19.22;100.00;100247.23;108920;1255;72642;-54
2023/08/17 04:29:49;;;;;;;3.10;1.10;;;;;;;19.39;100.00;100243.93;108873;1254;60449;-54
2023/08/17 04:32:16;;;;;;;1.00;0.90;;;;;;;19.63;100.00;100250.63;108909;1253;60667;-53
2023/08/17 04:34:45;;;;;;;1.00;0.90;;;;;;;20.01;100.00;100247.63;108898;1256;71584;-53
2023/08/17 04:37:14;;;;;;;0.90;0.80;;;;;;;20.51;100.00;100247.98;108938;1254;68940;-51
2023/08/17 04:39:43;;;;;;;1.10;1.00;;;;;;;20.95;100.00;100250.11;108900;1253;72797;-53
2023/08/17 04:42:12;;;;;;;1.50;0.90;;;;;;;21.27;100.00;100252.92;106694;1260;60034;-52
2023/08/17 04:44:39;;;;;;;4.90;1.10;;;;;;;21.56;100.00;100256.83;105223;1260;59746;-53
2023/08/17 04:47:07;;;;;;;4.50;0.80;;;;;;;21.79;100.00;100262.12;105350;1260;70798;-53
2023/08/17 04:49:34;;;;;;;1.70;0.90;;;;;;;21.92;100.00;100263.59;105219;1262;67444;-53
2023/08/17 04:52:02;;;;;;;0.90;0.80;;;;;;;21.98;100.00;100265.77;104912;1260;72395;-55
2023/08/17 04:54:30;;;;;;;0.80;0.70;;;;;;;22.01;100.00;100269.55;105162;1261;60021;-53
2023/08/17 04:56:57;;;;;;;2.20;0.90;;;;;;;22.02;100.00;100268.98;104939;1259;60032;-54
2023/08/17 04:59:25;;;;;;;1.20;0.90;;;;;;;22.00;100.00;100268.02;104756;1257;73004;-53
2023/08/17 05:01:54;;;;;;;4.70;0.70;;;;;;;21.98;100.00;100272.17;104841;1260;67371;-54
2023/08/17 05:04:22;;;;;;;2.70;0.70;;;;;;;21.97;100.00;100273.00;105453;1257;72705;-54
2023/08/17 05:06:49;;;;;;;0.90;0.80;;;;;;;21.97;100.00;100278.27;105148;1260;62191;-52
2023/08/17 05:09:17;;;;;;;2.90;0.70;;;;;;;22.00;100.00;100280.59;105233;1259;60864;-52
2023/08/17 05:11:45;;;;;;;0.90;0.70;;;;;;;22.04;100.00;100279.66;105235;1259;72239;-52
2023/08/17 05:14:12;;;;;;;3.00;0.70;;;;;;;22.09;100.00;100282.16;105192;1260;67367;-53
2023/08/17 05:16:40;;;;;;;1.40;0.70;;;;;;;22.14;100.00;100278.80;105357;1264;71442;-54
2023/08/17 05:19:07;;;;;;;2.70;0.80;;;;;;;22.19;100.00;100284.38;105377;1259;60507;-55
2023/08/17 05:21:35;;;;;;;1.60;0.80;;;;;;;22.25;100.00;100282.02;105355;1260;60495;-53
2023/08/17 05:24:03;;;;;;;1.50;0.70;;;;;;;22.31;100.00;100288.08;105374;1255;72649;-55
2023/08/17 05:26:31;;;;;;;1.30;0.70;;;;;;;22.37;100.00;100287.77;105007;1260;66108;-55
2023/08/17 05:29:00;;;;;;;0.60;0.60;;;;;;;22.42;100.00;100286.35;105116;1259;73174;-55
2023/08/17 05:31:27;;;;;;;2.00;0.60;;;;;;;22.47;100.00;100290.17;105148;1261;60360;-53
2023/08/17 05:33:55;;;;;;;1.60;0.70;;;;;;;22.49;100.00;100289.41;105371;1255;60445;-55
2023/08/17 05:36:23;;;;;;;1.90;0.70;;;;;;;22.53;100.00;100292.89;105003;1255;72935;-56
2023/08/17 05:38:51;;;;;;;2.00;0.70;;;;;;;22.57;100.00;100290.64;104541;1260;65650;-53
2023/08/17 05:41:19;;;;;;;2.40;0.60;;;;;;;22.63;100.00;100294.14;104998;1257;71443;-53
2023/08/17 05:43:48;;;;;;;1.60;0.60;;;;;;;22.70;100.00;100295.79;105099;1260;61746;-54
2023/08/17 05:46:15;;;;;;;0.50;0.50;;;;;;;22.77;100.00;100293.19;105839;1254;60562;-55
2023/08/17 05:48:43;;;;;;;2.30;0.60;;;;;;;22.83;100.00;100297.66;105357;1264;73897;-54
2023/08/17 05:51:10;;;;;;;1.10;0.80;;;;;;;22.89;100.00;100300.11;105275;1264;66907;-54
2023/08/17 05:53:38;;;;;;;1.80;0.80;;;;;;;22.95;100.00;100305.73;105373;1258;71509;-54
2023/08/17 05:56:05;;;;;;;1.70;0.60;;;;;;;23.02;100.00;100305.33;105267;1259;60498;-54
2023/08/17 05:58:32;;;;;;;1.50;0.50;;;;;;;23.09;100.00;100307.77;105018;1257;60619;-53
2023/08/17 06:01:07;;;;;;;0.60;0.60;;;;;;;23.16;100.00;100312.81;104852;1254;73948;-55
2023/08/17 06:03:35;;;;;;;2.30;0.60;;;;;;;23.23;100.00;100312.54;106395;1255;66732;-53
2023/08/17 06:06:04;;;;;;;1.30;0.70;;;;;;;23.28;100.00;100310.52;105526;1257;70878;-54
2023/08/17 06:08:31;;;;;;;5.50;1.00;;;;;;;23.34;100.00;100309.42;105304;1257;61217;-54
2023/08/17 06:10:58;;;;;;;2.40;0.80;;;;;;;23.39;100.00;100311.95;105429;1254;60408;-53
2023/08/17 06:13:26;;;;;;;3.20;0.70;;;;;;;23.44;100.00;100313.91;105339;1255;74265;-52
2023/08/17 06:15:53;;;;;;;2.70;0.80;;;;;;;23.48;100.00;100313.67;105241;1260;66467;-54
2023/08/17 06:18:25;;;;;;;4.20;0.60;;;;;;;23.52;100.00;100314.60;104696;1267;73144;-55
2023/08/17 06:20:53;;;;;;;7.10;0.70;;;;;;;23.57;100.00;100312.09;104844;1254;61467;-53
2023/08/17 06:23:21;;;;;;;0.60;0.50;;;;;;;23.63;100.00;100309.14;105898;1254;60628;-55
2023/08/17 06:25:48;;;;;;;3.80;0.60;;;;;;;23.66;100.00;100309.94;105110;1259;73760;-54
2023/08/17 06:28:16;;;;;;;3.00;0.60;;;;;;;23.68;100.00;100313.85;104978;1259;67259;-54
2023/08/17 06:30:43;;;;;;;5.50;0.50;;;;;;;23.70;100.00;100314.55;104900;1260;72312;-53
2023/08/17 06:33:10;;;;;;;1.60;0.60;;;;;;;23.71;100.00;100314.23;104839;1254;60657;-54
2023/08/17 06:35:38;;;;;;;2.70;0.60;;;;;;;23.75;100.00;100318.42;105206;1259;60501;-53
2023/08/17 06:38:06;;;;;;;4.80;0.60;;;;;;;23.80;100.00;100320.96;104982;1257;73831;-52
2023/08/17 06:40:33;;;;;;;1.60;0.70;;;;;;;23.85;100.00;100325.95;104928;1255;65583;-52
2023/08/17 06:43:01;;;;;;;1.00;0.60;;;;;;;23.90;100.00;100330.81;105124;1260;75509;-54
2023/08/17 06:45:28;;;;;;;1.10;0.60;;;;;;;23.95;100.00;100332.67;105042;1259;60495;-53
2023/08/17 06:47:55;;;;;;;1.90;0.60;;;;;;;23.99;100.00;100329.36;105122;1257;60360;-55
2023/08/17 06:50:23;;;;;;;2.50;0.60;;;;;;;24.02;100.00;100333.47;105154;1254;73924;-55
2023/08/17 06:52:50;;;;;;;4.80;0.50;;;;;;;24.06;100.00;100335.27;105267;1254;65751;-51
2023/08/17 06:55:17;;;;;;;2.50;0.40;;;;;;;24.12;100.00;100335.98;105167;1254;73155;-53
2023/08/17 06:57:45;;;;;;;2.20;0.60;;;;;;;24.17;100.00;100336.84;105121;1254;60559;-53
2023/08/17 07:00:13;;;;;;;3.50;0.50;;;;;;;24.18;100.00;100333.94;105047;1258;60456;-54
2023/08/17 07:02:41;;;;;;;3.90;0.40;;;;;;;24.20;100.00;100338.05;104996;1260;73926;-53
2023/08/17 07:05:20;;;;;;;3.30;0.80;;;;;;;24.22;100.00;100339.83;105070;1254;66202;-54
2023/08/17 07:07:48;;;;;;;2.00;0.40;;;;;;;24.27;100.00;100339.93;104993;1257;72673;-54
2023/08/17 07:10:15;;;;;;;0.80;0.40;;;;;;;24.30;100.00;100335.96;104997;1254;60530;-54
2023/08/17 07:12:42;;;;;;;2.30;0.50;;;;;;;24.36;100.00;100336.30;105480;1257;60587;-54
2023/08/17 07:15:10;;;;;;;0.70;0.40;;;;;;;24.43;100.00;100339.43;105427;1255;74075;-52
2023/08/17 07:17:37;;;;;;;0.60;0.40;;;;;;;24.50;100.00;100338.73;105523;1258;67594;-51
2023/08/17 07:20:07;;;;;;;3.60;0.40;;;;;;;24.57;100.00;100337.06;109043;1254;72596;-54
2023/08/17 07:22:43;;;;;;;1.00;0.40;;;;;;;24.63;100.00;100339.70;109066;1254;59483;-54
2023/08/17 07:25:10;;;;;;;0.70;0.40;;;;;;;24.70;100.00;100339.60;106192;1258;60646;-53
2023/08/17 07:27:38;;;;;;;1.40;0.40;;;;;;;24.76;100.00;100337.30;105369;1255;72737;-54
2023/08/17 07:30:07;;;;;;;2.90;0.40;;;;;;;24.82;100.00;100343.47;105529;1257;65491;-54
2023/08/17 07:32:35;;;;;;;3.20;0.40;;;;;;;24.91;100.00;100345.00;105627;1259;73068;-54
2023/08/17 07:35:03;;;;;;;8.20;0.40;;;;;;;24.99;100.00;100346.61;105384;1254;60509;-53
2023/08/17 07:37:33;;;;;;;10.60;0.40;;;;;;;25.05;100.00;100348.38;105368;1258;60527;-53
2023/08/17 07:40:03;;;;;;;0.40;0.20;;;;;;;25.13;100.00;100356.02;108861;1252;75111;-53
2023/08/17 07:42:31;;;;;;;0.70;0.40;;;;;;;25.20;100.00;100357.04;106072;1257;66902;-53
2023/08/17 07:44:59;;;;;;;2.80;0.50;;;;;;;25.26;100.00;100358.60;105131;1254;72782;-53
2023/08/17 07:47:26;;;;;;;4.60;0.40;;;;;;;25.31;100.00;100356.31;106212;1254;60874;-53
2023/08/17 07:49:54;;;;;;;0.90;0.40;;;;;;;25.35;100.00;100363.91;109029;1253;58737;-53
2023/08/17 07:52:22;;;;;;;0.80;0.40;;;;;;;25.40;100.00;100363.05;106768;1254;72486;-54
2023/08/17 07:54:49;;;;;;;1.60;0.40;;;;;;;25.46;100.00;100366.46;105347;1254;66208;-53
2023/08/17 07:57:16;;;;;;;0.60;0.30;;;;;;;25.53;100.00;100369.98;105426;1254;71783;-55
2023/08/17 07:59:44;;;;;;;6.40;0.40;;;;;;;25.59;100.00;100373.83;105542;1257;60573;-52
2023/08/17 08:02:11;;;;;;;0.70;0.40;;;;;;;25.66;100.00;100376.85;105455;1254;60508;-55
2023/08/17 08:04:39;;;;;;;2.90;0.30;;;;;;;25.70;100.00;100373.99;105230;1257;73885;-54
2023/08/17 08:07:06;;;;;;;2.20;0.40;;;;;;;25.77;100.00;100370.80;104968;1257;65520;-54
2023/08/17 08:09:33;;;;;;;1.50;0.40;;;;;;;25.81;100.00;100370.09;104922;1254;72691;-54
2023/08/17 08:12:01;;;;;;;1.20;0.40;;;;;;;25.87;100.00;100370.21;104919;1255;60533;-53
2023/08/17 08:14:29;;;;;;;3.60;0.40;;;;;;;25.92;100.00;100368.23;105379;1252;59962;-54
2023/08/17 08:16:56;;;;;;;0.90;0.40;;;;;;;26.00;100.00;100370.02;104986;1256;73794;-53
2023/08/17 08:19:24;;;;;;;1.00;0.40;;;;;;;26.09;100.00;100373.18;105047;1255;67241;-53
2023/08/17 08:21:51;;;;;;;0.50;0.30;;;;;;;26.13;100.00;100373.83;104953;1264;71206;-53
2023/08/17 08:24:19;;;;;;;8.20;0.50;;;;;;;26.11;100.00;100375.16;105008;1258;60615;-53
2023/08/17 08:27:04;;;;;;;1.00;0.30;;;;;;;26.08;100.00;100371.17;105142;1255;60645;-52
2023/08/17 08:29:31;;;;;;;2.70;0.40;;;;;;;26.12;100.00;100377.02;105402;1252;74630;-54
2023/08/17 08:31:59;;;;;;;0.40;0.30;;;;;;;26.18;100.00;100374.95;105484;1267;65713;-51
2023/08/17 08:34:27;;;;;;;0.40;0.30;;;;;;;26.24;100.00;100371.70;105171;1257;73791;-51
2023/08/17 08:36:54;;;;;;;0.50;0.30;;;;;;;26.25;100.00;100374.92;105341;1255;60498;-52
2023/08/17 08:39:22;;;;;;;3.70;0.40;;;;;;;26.23;100.00;100373.27;105482;1257;60459;-53
2023/08/17 08:41:49;;;;;;;0.90;0.30;;;;;;;26.22;100.00;100375.64;105161;1257;73795;-53
2023/08/17 08:44:16;;;;;;;0.30;0.30;;;;;;;26.24;100.00;100376.00;105364;1256;68080;-55
2023/08/17 08:46:44;;;;;;;2.50;0.30;;;;;;;26.30;100.00;100374.44;104954;1254;71366;-52
2023/08/17 08:49:12;;;;;;;0.40;0.30;;;;;;;26.40;100.00;100373.27;109023;1254;58759;-54
2023/08/17 08:51:42;;;;;;;3.10;0.30;;;;;;;26.49;100.00;100373.06;106862;1258;60498;-52
2023/08/17 08:54:13;;;;;;;0.30;0.30;;;;;;;26.57;100.00;100376.73;105578;1252;73809;-53
2023/08/17 08:56:42;;;;;;;2.90;0.30;;;;;;;26.65;100.00;100375.71;105346;1257;67950;-54
2023/08/17 08:59:15;;;;;;;1.20;0.30;;;;;;;26.74;100.00;100376.98;105207;1254;74629;-53
2023/08/17 09:01:42;;;;;;;1.00;0.30;;;;;;;26.82;100.00;100377.61;108739;1254;61641;-54
2023/08/17 09:04:10;;;;;;;1.90;0.50;;;;;;;26.89;100.00;100379.25;106619;1257;60417;-53
2023/08/17 09:06:37;;;;;;;1.50;0.30;;;;;;;26.94;100.00;100379.83;105433;1252;74231;-54
2023/08/17 09:09:05;;;;;;;1.80;0.30;;;;;;;27.00;100.00;100379.90;105441;1257;65517;-54
2023/08/17 09:11:32;;;;;;;4.30;0.40;;;;;;;27.08;100.00;100383.98;105473;1260;72475;-53
2023/08/17 09:13:59;;;;;;;1.70;0.30;;;;;;;27.15;100.00;100383.33;105412;1258;60411;-53
2023/08/17 09:16:27;;;;;;;1.20;0.30;;;;;;;27.21;100.00;100388.15;105427;1261;61104;-52
2023/08/17 09:18:54;;;;;;;2.50;0.30;;;;;;;27.27;100.00;100382.21;105461;1254;72776;-53
2023/08/17 09:21:23;;;;;;;1.00;0.30;;;;;;;27.31;100.00;100381.71;105528;1254;66736;-54
2023/08/17 09:23:54;;;;;;;0.40;0.30;;;;;;;27.35;100.00;100377.44;105485;1256;73178;-54
2023/08/17 09:26:24;;;;;;;;;;;;;;;27.40;100.00;100382.95;105551;1254;60562;-54
2023/08/17 09:28:53;;;;;;;1.00;0.30;;;;;;;27.43;100.00;100384.83;105484;1256;60481;-54
2023/08/17 09:31:21;;;;;;;0.90;0.30;;;;;;;27.44;100.00;100384.84;105318;1254;72760;-55
2023/08/17 09:33:52;;;;;;;1.90;0.30;;;;;;;27.44;100.00;100384.01;105393;1258;67799;-55
2023/08/17 09:36:24;;;;;;;2.80;0.30;;;;;;;27.40;100.00;100381.27;105461;1254;71397;-54
2023/08/17 09:38:51;;;;;;;1.00;0.30;;;;;;;27.37;100.00;100382.13;105646;1254;60415;-54
2023/08/17 09:41:19;;;;;;;0.60;0.30;;;;;;;27.36;100.00;100380.98;105339;1256;60645;-54
2023/08/17 09:43:46;;;;;;;2.10;0.30;;;;;;;27.36;100.00;100382.32;105419;1254;73037;-55
2023/08/17 09:46:14;;;;;;;0.90;0.30;;;;;;;27.31;100.00;100379.64;105238;1257;69152;-55
2023/08/17 09:48:45;;;;;;;1.40;0.30;;;;;;;27.31;100.00;100378.98;109008;1254;72900;-52
2023/08/17 09:51:16;;;;;;;0.70;0.30;;;;;;;27.34;100.00;100373.80;108797;1253;60498;-51
2023/08/17 09:53:43;;;;;;;4.20;0.30;;;;;;;27.40;100.00;100376.48;105351;1252;61019;-54
2023/08/17 09:56:10;;;;;;;6.40;0.30;;;;;;;27.45;100.00;100367.42;105273;1260;72611;-54
2023/08/17 09:58:44;;;;;;;1.20;0.30;;;;;;;27.51;100.00;100363.29;105155;1262;66087;-53
2023/08/17 10:01:13;;;;;;;0.20;0.20;;;;;;;27.57;100.00;100357.46;105310;1253;72420;-53
2023/08/17 10:03:46;;;;;;;1.40;0.30;;;;;;;27.63;100.00;100359.81;105285;1260;60587;-52
2023/08/17 10:06:15;;;;;;;0.40;0.30;;;;;;;27.66;100.00;100358.38;105514;1256;60368;-53
2023/08/17 10:08:43;;;;;;;2.90;0.30;;;;;;;27.64;100.00;100353.44;105266;1254;73861;-52
2023/08/17 10:11:12;;;;;;;1.20;0.30;;;;;;;27.57;100.00;100352.11;105329;1254;65233;-53
2023/08/17 10:13:45;;;;;;;1.20;0.40;;;;;;;27.55;100.00;100353.12;109059;1257;73277;-53
2023/08/17 10:16:45;;;;;;;5.30;0.60;;;;;;;27.55;100.00;100355.02;109079;1253;58914;-54
2023/08/17 10:19:12;;;;;;;1.10;0.30;;;;;;;27.55;100.00;100351.50;108871;1258;59576;-53
2023/08/17 10:21:44;;;;;;;2.10;0.30;;;;;;;27.58;100.00;100347.48;108974;1254;73838;-53
2023/08/17 10:24:11;;;;;;;3.50;0.30;;;;;;;27.62;100.00;100350.48;108851;1254;66932;-53
2023/08/17 10:26:39;;;;;;;3.30;0.30;;;;;;;27.63;100.00;100354.08;105423;1254;73161;-52
2023/08/17 10:29:06;;;;;;;2.20;0.30;;;;;;;27.61;100.00;100348.71;108776;1253;59999;-53
2023/08/17 10:31:46;;;;;;;1.80;0.30;;;;;;;27.54;100.00;100348.56;109088;1254;59948;-53
2023/08/17 10:34:14;;;;;;;0.80;0.30;;;;;;;27.46;100.00;100347.00;108978;1253;74691;-53
2023/08/17 10:36:42;;;;;;;2.00;0.30;;;;;;;27.41;100.00;100346.63;108718;1260;66759;-53
2023/08/17 10:39:23;;;;;;;1.60;0.30;;;;;;;27.43;100.00;100345.58;108848;1254;72701;-53
2023/08/17 10:41:56;;;;;;;0.70;0.30;;;;;;;27.46;100.00;100344.89;108987;1253;58775;-54
2023/08/17 10:44:45;;;;;;;0.20;0.20;;;;;;;27.44;100.00;100341.43;109013;1254;58776;-54
2023/08/17 10:47:29;;;;;;;1.50;0.30;;;;;;;27.47;100.00;100338.79;108965;1253;73475;-55
2023/08/17 10:50:03;;;;;;;0.50;0.50;;;;;;;27.56;100.00;100336.90;108384;1256;67228;-53
2023/08/17 10:52:34;;;;;;;4.50;0.30;;;;;;;27.63;100.00;100336.67;108924;1253;72946;-54
2023/08/17 10:55:05;;;;;;;3.90;0.60;;;;;;;27.68;100.00;100334.27;106922;1254;60355;-54
2023/08/17 10:57:36;;;;;;;0.80;0.40;;;;;;;27.76;100.00;100332.55;108696;1253;59972;-54
2023/08/17 11:00:17;;;;;;;4.20;0.40;;;;;;;27.83;100.00;100329.86;108896;1253;73841;-55
2023/08/17 11:03:05;;;;;;;0.50;0.30;;;;;;;27.91;100.00;100324.06;109007;1254;67529;-54
2023/08/17 11:05:48;;;;;;;0.90;0.30;;;;;;;27.96;100.00;100323.87;105484;1253;72460;-52
2023/08/17 11:08:22;;;;;;;0.80;0.30;;;;;;;28.01;100.00;100325.28;108617;1254;60526;-52
2023/08/17 11:11:02;;;;;;;3.00;0.40;;;;;;;27.99;100.00;100324.05;105374;1257;60457;-53
2023/08/17 11:13:31;;;;;;;0.70;0.40;;;;;;;27.95;100.00;100318.40;105510;1257;74218;-54
2023/08/17 11:15:59;;;;;;;1.70;0.30;;;;;;;27.97;100.00;100316.96;108910;1253;65767;-54
2023/08/17 11:18:33;;;;;;;0.80;0.30;;;;;;;28.01;100.00;100317.36;108938;1253;72642;-53